Terminal Aerodrome Forecast
Issued by NWS

Home | Current Version | Previous Version | Text Only | Print | Product List | Glossary On
Versions: 1 2 3 4 5 6 7 8 9 10 11 12 13 14 15 16 17 18 19 20 21 22 23 24 25 26 27 28 29 30
667
FTUS46 KOTX 081727
TAFMWH
TAF
KMWH 081727Z 0818/0918 36007KT P6SM SCT200
     FM090800 36003KT 4SM BR SCT004
     FM091400 36005KT 2SM BR BKN003=

USA.gov is the U.S. government's official web portal to all federal, state and local government web resources and services.